sensor_id;sensor_type;location;lat;lon;timestamp;P1;durP1;ratioP1;P2;durP2;ratioP2
12665;SDS011;58531;59.050;17.416;2024-02-28T00:01:04;5.77;;;5.20;;
12665;SDS011;58531;59.050;17.416;2024-02-28T00:03:31;6.30;;;4.77;;
12665;SDS011;58531;59.050;17.416;2024-02-28T00:05:59;5.63;;;4.57;;
12665;SDS011;58531;59.050;17.416;2024-02-28T00:08:26;4.93;;;4.13;;
12665;SDS011;58531;59.050;17.416;2024-02-28T00:10:53;5.03;;;4.53;;
12665;SDS011;58531;59.050;17.416;2024-02-28T00:13:20;4.23;;;3.83;;
12665;SDS011;58531;59.050;17.416;2024-02-28T00:15:48;5.27;;;4.20;;
12665;SDS011;58531;59.050;17.416;2024-02-28T00:18:16;4.80;;;4.30;;
12665;SDS011;58531;59.050;17.416;2024-02-28T00:20:44;4.27;;;3.87;;
12665;SDS011;58531;59.050;17.416;2024-02-28T00:23:11;4.83;;;4.10;;
12665;SDS011;58531;59.050;17.416;2024-02-28T00:25:38;4.00;;;3.60;;
12665;SDS011;58531;59.050;17.416;2024-02-28T00:28:10;4.90;;;3.67;;
12665;SDS011;58531;59.050;17.416;2024-02-28T00:30:36;4.30;;;3.73;;
12665;SDS011;58531;59.050;17.416;2024-02-28T00:33:03;3.37;;;3.03;;
12665;SDS011;58531;59.050;17.416;2024-02-28T00:35:32;4.30;;;3.17;;
12665;SDS011;58531;59.050;17.416;2024-02-28T00:38:00;4.43;;;3.60;;
12665;SDS011;58531;59.050;17.416;2024-02-28T00:40:26;3.97;;;3.50;;
12665;SDS011;58531;59.050;17.416;2024-02-28T00:42:54;4.57;;;3.83;;
12665;SDS011;58531;59.050;17.416;2024-02-28T00:45:21;4.47;;;3.77;;
12665;SDS011;58531;59.050;17.416;2024-02-28T00:47:47;4.97;;;3.83;;
12665;SDS011;58531;59.050;17.416;2024-02-28T00:50:14;4.03;;;3.63;;
12665;SDS011;58531;59.050;17.416;2024-02-28T00:52:43;4.10;;;3.70;;
12665;SDS011;58531;59.050;17.416;2024-02-28T00:55:10;3.77;;;3.33;;
12665;SDS011;58531;59.050;17.416;2024-02-28T00:57:37;4.70;;;4.20;;
12665;SDS011;58531;59.050;17.416;2024-02-28T01:00:04;4.30;;;3.90;;
12665;SDS011;58531;59.050;17.416;2024-02-28T01:02:31;4.20;;;3.63;;
12665;SDS011;58531;59.050;17.416;2024-02-28T01:04:58;4.73;;;3.90;;
12665;SDS011;58531;59.050;17.416;2024-02-28T01:07:26;7.33;;;3.83;;
12665;SDS011;58531;59.050;17.416;2024-02-28T01:09:55;4.17;;;3.37;;
12665;SDS011;58531;59.050;17.416;2024-02-28T01:12:24;4.63;;;3.57;;
12665;SDS011;58531;59.050;17.416;2024-02-28T01:14:51;4.37;;;3.60;;
12665;SDS011;58531;59.050;17.416;2024-02-28T01:17:18;3.40;;;3.10;;
12665;SDS011;58531;59.050;17.416;2024-02-28T01:19:45;3.60;;;3.20;;
12665;SDS011;58531;59.050;17.416;2024-02-28T01:22:12;4.00;;;3.60;;
12665;SDS011;58531;59.050;17.416;2024-02-28T01:24:39;3.43;;;3.13;;
12665;SDS011;58531;59.050;17.416;2024-02-28T01:27:07;4.50;;;3.97;;
12665;SDS011;58531;59.050;17.416;2024-02-28T01:29:34;4.27;;;3.37;;
12665;SDS011;58531;59.050;17.416;2024-02-28T01:32:01;4.13;;;3.73;;
12665;SDS011;58531;59.050;17.416;2024-02-28T01:34:28;4.10;;;3.43;;
12665;SDS011;58531;59.050;17.416;2024-02-28T01:36:54;3.93;;;3.20;;
12665;SDS011;58531;59.050;17.416;2024-02-28T01:39:21;3.90;;;3.30;;
12665;SDS011;58531;59.050;17.416;2024-02-28T01:41:52;4.13;;;3.60;;
12665;SDS011;58531;59.050;17.416;2024-02-28T01:44:21;3.83;;;3.43;;
12665;SDS011;58531;59.050;17.416;2024-02-28T01:46:48;4.57;;;3.50;;
12665;SDS011;58531;59.050;17.416;2024-02-28T01:49:15;4.27;;;3.60;;
12665;SDS011;58531;59.050;17.416;2024-02-28T01:51:43;3.60;;;3.23;;
12665;SDS011;58531;59.050;17.416;2024-02-28T01:54:11;4.20;;;3.73;;
12665;SDS011;58531;59.050;17.416;2024-02-28T01:56:38;4.53;;;3.50;;
12665;SDS011;58531;59.050;17.416;2024-02-28T01:59:05;4.40;;;3.60;;
12665;SDS011;58531;59.050;17.416;2024-02-28T02:01:34;4.67;;;3.73;;
12665;SDS011;58531;59.050;17.416;2024-02-28T02:04:02;4.27;;;3.57;;
12665;SDS011;58531;59.050;17.416;2024-02-28T02:06:29;4.20;;;3.60;;
12665;SDS011;58531;59.050;17.416;2024-02-28T02:08:56;5.30;;;3.47;;
12665;SDS011;58531;59.050;17.416;2024-02-28T02:11:23;5.33;;;3.90;;
12665;SDS011;58531;59.050;17.416;2024-02-28T02:13:51;4.43;;;4.00;;
12665;SDS011;58531;59.050;17.416;2024-02-28T02:16:19;4.30;;;3.90;;
12665;SDS011;58531;59.050;17.416;2024-02-28T02:18:49;4.87;;;3.60;;
12665;SDS011;58531;59.050;17.416;2024-02-28T02:21:17;4.87;;;4.00;;
12665;SDS011;58531;59.050;17.416;2024-02-28T02:23:47;5.03;;;3.73;;
12665;SDS011;58531;59.050;17.416;2024-02-28T02:26:14;4.17;;;3.77;;
12665;SDS011;58531;59.050;17.416;2024-02-28T02:28:41;5.37;;;4.10;;
12665;SDS011;58531;59.050;17.416;2024-02-28T02:31:07;4.43;;;3.80;;
12665;SDS011;58531;59.050;17.416;2024-02-28T02:33:34;5.23;;;3.73;;
12665;SDS011;58531;59.050;17.416;2024-02-28T02:36:01;4.53;;;4.07;;
12665;SDS011;58531;59.050;17.416;2024-02-28T02:38:28;4.60;;;3.90;;
12665;SDS011;58531;59.050;17.416;2024-02-28T02:40:56;5.63;;;3.90;;
12665;SDS011;58531;59.050;17.416;2024-02-28T02:43:23;4.33;;;3.93;;
12665;SDS011;58531;59.050;17.416;2024-02-28T02:45:50;3.70;;;3.30;;
12665;SDS011;58531;59.050;17.416;2024-02-28T02:48:17;3.70;;;3.20;;
12665;SDS011;58531;59.050;17.416;2024-02-28T02:50:47;4.60;;;3.93;;
12665;SDS011;58531;59.050;17.416;2024-02-28T02:53:14;5.00;;;3.53;;
12665;SDS011;58531;59.050;17.416;2024-02-28T02:55:41;5.00;;;4.03;;
12665;SDS011;58531;59.050;17.416;2024-02-28T02:58:09;5.77;;;4.03;;
12665;SDS011;58531;59.050;17.416;2024-02-28T03:00:36;4.70;;;3.80;;
12665;SDS011;58531;59.050;17.416;2024-02-28T03:03:03;3.90;;;3.40;;
12665;SDS011;58531;59.050;17.416;2024-02-28T03:05:30;4.93;;;3.40;;
12665;SDS011;58531;59.050;17.416;2024-02-28T03:07:57;4.00;;;2.93;;
12665;SDS011;58531;59.050;17.416;2024-02-28T03:10:24;3.87;;;3.20;;
12665;SDS011;58531;59.050;17.416;2024-02-28T03:12:51;4.27;;;3.47;;
12665;SDS011;58531;59.050;17.416;2024-02-28T03:15:19;4.23;;;3.50;;
12665;SDS011;58531;59.050;17.416;2024-02-28T03:17:46;3.80;;;3.40;;
12665;SDS011;58531;59.050;17.416;2024-02-28T03:20:13;4.67;;;3.70;;
12665;SDS011;58531;59.050;17.416;2024-02-28T03:22:40;4.93;;;3.53;;
12665;SDS011;58531;59.050;17.416;2024-02-28T03:25:07;4.43;;;3.80;;
12665;SDS011;58531;59.050;17.416;2024-02-28T03:27:35;3.63;;;3.23;;
12665;SDS011;58531;59.050;17.416;2024-02-28T03:30:02;4.17;;;3.07;;
12665;SDS011;58531;59.050;17.416;2024-02-28T03:32:31;3.30;;;2.93;;
12665;SDS011;58531;59.050;17.416;2024-02-28T03:34:57;4.30;;;3.50;;
12665;SDS011;58531;59.050;17.416;2024-02-28T03:37:25;4.37;;;3.40;;
12665;SDS011;58531;59.050;17.416;2024-02-28T03:39:52;4.47;;;3.57;;
12665;SDS011;58531;59.050;17.416;2024-02-28T03:42:18;4.33;;;3.17;;
12665;SDS011;58531;59.050;17.416;2024-02-28T03:44:46;4.30;;;3.33;;
12665;SDS011;58531;59.050;17.416;2024-02-28T03:47:13;4.87;;;3.57;;
12665;SDS011;58531;59.050;17.416;2024-02-28T03:49:41;7.83;;;3.37;;
12665;SDS011;58531;59.050;17.416;2024-02-28T03:52:08;5.17;;;3.20;;
12665;SDS011;58531;59.050;17.416;2024-02-28T03:54:35;4.17;;;3.53;;
12665;SDS011;58531;59.050;17.416;2024-02-28T03:57:02;3.80;;;3.17;;
12665;SDS011;58531;59.050;17.416;2024-02-28T03:59:28;4.33;;;3.10;;
12665;SDS011;58531;59.050;17.416;2024-02-28T04:01:55;5.83;;;3.60;;
12665;SDS011;58531;59.050;17.416;2024-02-28T04:04:22;5.20;;;3.33;;
12665;SDS011;58531;59.050;17.416;2024-02-28T04:06:51;3.73;;;3.20;;
12665;SDS011;58531;59.050;17.416;2024-02-28T04:09:18;3.87;;;3.03;;
12665;SDS011;58531;59.050;17.416;2024-02-28T04:11:46;3.50;;;3.13;;
12665;SDS011;58531;59.050;17.416;2024-02-28T04:14:13;4.07;;;3.10;;
12665;SDS011;58531;59.050;17.416;2024-02-28T04:16:43;4.57;;;3.10;;
12665;SDS011;58531;59.050;17.416;2024-02-28T04:19:10;3.97;;;3.47;;
12665;SDS011;58531;59.050;17.416;2024-02-28T04:21:37;4.97;;;3.40;;
12665;SDS011;58531;59.050;17.416;2024-02-28T04:24:05;4.07;;;3.40;;
12665;SDS011;58531;59.050;17.416;2024-02-28T04:26:32;4.30;;;3.40;;
12665;SDS011;58531;59.050;17.416;2024-02-28T04:29:00;4.00;;;3.30;;
12665;SDS011;58531;59.050;17.416;2024-02-28T04:31:28;3.80;;;3.17;;
12665;SDS011;58531;59.050;17.416;2024-02-28T04:33:55;3.53;;;2.87;;
12665;SDS011;58531;59.050;17.416;2024-02-28T04:36:22;5.77;;;3.60;;
12665;SDS011;58531;59.050;17.416;2024-02-28T04:38:49;4.17;;;3.07;;
12665;SDS011;58531;59.050;17.416;2024-02-28T04:41:17;3.67;;;3.07;;
12665;SDS011;58531;59.050;17.416;2024-02-28T04:43:46;4.00;;;3.30;;
12665;SDS011;58531;59.050;17.416;2024-02-28T04:46:13;4.87;;;3.50;;
12665;SDS011;58531;59.050;17.416;2024-02-28T04:48:40;5.13;;;3.30;;
12665;SDS011;58531;59.050;17.416;2024-02-28T04:51:06;4.17;;;3.10;;
12665;SDS011;58531;59.050;17.416;2024-02-28T04:53:33;5.50;;;3.03;;
12665;SDS011;58531;59.050;17.416;2024-02-28T04:56:00;3.03;;;2.73;;
12665;SDS011;58531;59.050;17.416;2024-02-28T04:58:28;3.73;;;2.70;;
12665;SDS011;58531;59.050;17.416;2024-02-28T05:00:55;3.87;;;3.03;;
12665;SDS011;58531;59.050;17.416;2024-02-28T05:03:22;3.53;;;3.20;;
12665;SDS011;58531;59.050;17.416;2024-02-28T05:05:50;5.03;;;3.50;;
12665;SDS011;58531;59.050;17.416;2024-02-28T05:08:16;4.53;;;3.37;;
12665;SDS011;58531;59.050;17.416;2024-02-28T05:10:44;3.67;;;3.17;;
12665;SDS011;58531;59.050;17.416;2024-02-28T05:13:11;4.37;;;3.10;;
12665;SDS011;58531;59.050;17.416;2024-02-28T05:15:39;4.43;;;3.50;;
12665;SDS011;58531;59.050;17.416;2024-02-28T05:18:06;4.60;;;3.40;;
12665;SDS011;58531;59.050;17.416;2024-02-28T05:20:33;4.33;;;3.50;;
12665;SDS011;58531;59.050;17.416;2024-02-28T05:23:00;4.73;;;3.20;;
12665;SDS011;58531;59.050;17.416;2024-02-28T05:25:26;4.73;;;3.20;;
12665;SDS011;58531;59.050;17.416;2024-02-28T05:27:54;4.00;;;3.20;;
12665;SDS011;58531;59.050;17.416;2024-02-28T05:30:20;4.50;;;3.00;;
12665;SDS011;58531;59.050;17.416;2024-02-28T05:32:49;3.93;;;3.47;;
12665;SDS011;58531;59.050;17.416;2024-02-28T05:35:18;4.00;;;3.60;;
12665;SDS011;58531;59.050;17.416;2024-02-28T05:37:45;3.73;;;3.37;;
12665;SDS011;58531;59.050;17.416;2024-02-28T05:40:12;3.83;;;3.33;;
12665;SDS011;58531;59.050;17.416;2024-02-28T05:42:39;3.80;;;3.30;;
12665;SDS011;58531;59.050;17.416;2024-02-28T05:45:07;5.30;;;3.53;;
12665;SDS011;58531;59.050;17.416;2024-02-28T05:47:35;4.70;;;3.33;;
12665;SDS011;58531;59.050;17.416;2024-02-28T05:50:04;4.20;;;3.23;;
12665;SDS011;58531;59.050;17.416;2024-02-28T05:52:31;4.50;;;3.33;;
12665;SDS011;58531;59.050;17.416;2024-02-28T05:54:58;4.23;;;3.50;;
12665;SDS011;58531;59.050;17.416;2024-02-28T05:57:25;4.97;;;3.33;;
12665;SDS011;58531;59.050;17.416;2024-02-28T05:59:52;4.93;;;3.33;;
12665;SDS011;58531;59.050;17.416;2024-02-28T06:02:19;3.97;;;3.13;;
12665;SDS011;58531;59.050;17.416;2024-02-28T06:04:46;4.07;;;3.40;;
12665;SDS011;58531;59.050;17.416;2024-02-28T06:07:14;4.20;;;3.50;;
12665;SDS011;58531;59.050;17.416;2024-02-28T06:09:41;3.70;;;3.30;;
12665;SDS011;58531;59.050;17.416;2024-02-28T06:12:08;4.10;;;3.00;;
12665;SDS011;58531;59.050;17.416;2024-02-28T06:14:35;3.53;;;3.13;;
12665;SDS011;58531;59.050;17.416;2024-02-28T06:17:05;4.07;;;3.50;;
12665;SDS011;58531;59.050;17.416;2024-02-28T06:19:32;3.33;;;3.00;;
12665;SDS011;58531;59.050;17.416;2024-02-28T06:21:59;4.10;;;3.00;;
12665;SDS011;58531;59.050;17.416;2024-02-28T06:24:27;5.73;;;3.40;;
12665;SDS011;58531;59.050;17.416;2024-02-28T06:26:57;4.07;;;2.70;;
12665;SDS011;58531;59.050;17.416;2024-02-28T06:29:24;4.27;;;3.10;;
12665;SDS011;58531;59.050;17.416;2024-02-28T06:31:51;3.00;;;2.53;;
12665;SDS011;58531;59.050;17.416;2024-02-28T06:34:18;3.33;;;2.93;;
12665;SDS011;58531;59.050;17.416;2024-02-28T06:36:45;4.10;;;3.20;;
12665;SDS011;58531;59.050;17.416;2024-02-28T06:39:12;3.30;;;2.77;;
12665;SDS011;58531;59.050;17.416;2024-02-28T06:41:40;3.17;;;2.87;;
12665;SDS011;58531;59.050;17.416;2024-02-28T06:44:07;3.00;;;2.60;;
12665;SDS011;58531;59.050;17.416;2024-02-28T06:46:34;4.83;;;3.10;;
12665;SDS011;58531;59.050;17.416;2024-02-28T06:49:01;3.50;;;3.10;;
12665;SDS011;58531;59.050;17.416;2024-02-28T06:51:30;3.13;;;2.83;;
12665;SDS011;58531;59.050;17.416;2024-02-28T06:53:57;3.23;;;2.97;;
12665;SDS011;58531;59.050;17.416;2024-02-28T06:56:24;3.30;;;2.67;;
12665;SDS011;58531;59.050;17.416;2024-02-28T06:58:52;3.20;;;2.90;;
12665;SDS011;58531;59.050;17.416;2024-02-28T07:01:19;3.00;;;2.63;;
12665;SDS011;58531;59.050;17.416;2024-02-28T07:03:46;2.83;;;2.53;;
12665;SDS011;58531;59.050;17.416;2024-02-28T07:06:12;2.57;;;2.37;;
12665;SDS011;58531;59.050;17.416;2024-02-28T07:08:39;2.83;;;2.60;;
12665;SDS011;58531;59.050;17.416;2024-02-28T07:11:12;2.93;;;2.63;;
12665;SDS011;58531;59.050;17.416;2024-02-28T07:13:39;3.17;;;2.30;;
12665;SDS011;58531;59.050;17.416;2024-02-28T07:16:08;3.00;;;2.70;;
12665;SDS011;58531;59.050;17.416;2024-02-28T07:18:34;2.60;;;2.23;;
12665;SDS011;58531;59.050;17.416;2024-02-28T07:21:01;3.40;;;2.63;;
12665;SDS011;58531;59.050;17.416;2024-02-28T07:23:28;3.23;;;2.60;;
12665;SDS011;58531;59.050;17.416;2024-02-28T07:25:55;2.80;;;2.60;;
12665;SDS011;58531;59.050;17.416;2024-02-28T07:28:22;2.90;;;2.30;;
12665;SDS011;58531;59.050;17.416;2024-02-28T07:30:49;3.10;;;2.30;;
12665;SDS011;58531;59.050;17.416;2024-02-28T07:33:17;2.30;;;2.10;;
12665;SDS011;58531;59.050;17.416;2024-02-28T07:35:44;2.60;;;2.37;;
12665;SDS011;58531;59.050;17.416;2024-02-28T07:38:11;2.27;;;2.07;;
12665;SDS011;58531;59.050;17.416;2024-02-28T07:40:38;2.30;;;2.10;;
12665;SDS011;58531;59.050;17.416;2024-02-28T07:43:05;2.67;;;2.20;;
12665;SDS011;58531;59.050;17.416;2024-02-28T07:45:32;2.27;;;2.07;;
12665;SDS011;58531;59.050;17.416;2024-02-28T07:47:59;3.03;;;2.20;;
12665;SDS011;58531;59.050;17.416;2024-02-28T07:50:27;3.07;;;2.43;;
12665;SDS011;58531;59.050;17.416;2024-02-28T07:52:55;2.77;;;2.27;;
12665;SDS011;58531;59.050;17.416;2024-02-28T07:55:22;2.30;;;2.10;;
12665;SDS011;58531;59.050;17.416;2024-02-28T07:57:50;3.03;;;2.30;;
12665;SDS011;58531;59.050;17.416;2024-02-28T08:00:17;2.43;;;2.23;;
12665;SDS011;58531;59.050;17.416;2024-02-28T08:02:45;3.13;;;2.33;;
12665;SDS011;58531;59.050;17.416;2024-02-28T08:05:13;2.47;;;2.27;;
12665;SDS011;58531;59.050;17.416;2024-02-28T08:07:41;3.47;;;2.63;;
12665;SDS011;58531;59.050;17.416;2024-02-28T08:10:08;3.07;;;2.57;;
12665;SDS011;58531;59.050;17.416;2024-02-28T08:12:36;3.97;;;2.60;;
12665;SDS011;58531;59.050;17.416;2024-02-28T08:15:04;4.73;;;2.37;;
12665;SDS011;58531;59.050;17.416;2024-02-28T08:17:31;3.23;;;2.50;;
12665;SDS011;58531;59.050;17.416;2024-02-28T08:19:58;4.07;;;2.47;;
12665;SDS011;58531;59.050;17.416;2024-02-28T08:22:25;2.27;;;2.07;;
12665;SDS011;58531;59.050;17.416;2024-02-28T08:24:54;2.70;;;2.30;;
12665;SDS011;58531;59.050;17.416;2024-02-28T08:27:21;2.53;;;2.33;;
12665;SDS011;58531;59.050;17.416;2024-02-28T08:29:48;2.73;;;2.40;;
12665;SDS011;58531;59.050;17.416;2024-02-28T08:32:15;4.17;;;2.57;;
12665;SDS011;58531;59.050;17.416;2024-02-28T08:34:43;3.10;;;2.80;;
12665;SDS011;58531;59.050;17.416;2024-02-28T08:37:11;3.07;;;2.43;;
12665;SDS011;58531;59.050;17.416;2024-02-28T08:39:38;3.07;;;2.60;;
12665;SDS011;58531;59.050;17.416;2024-02-28T08:42:06;4.30;;;2.60;;
12665;SDS011;58531;59.050;17.416;2024-02-28T08:44:33;3.10;;;2.80;;
12665;SDS011;58531;59.050;17.416;2024-02-28T08:47:00;3.33;;;3.00;;
12665;SDS011;58531;59.050;17.416;2024-02-28T08:49:27;3.20;;;2.30;;
12665;SDS011;58531;59.050;17.416;2024-02-28T08:51:57;3.17;;;2.50;;
12665;SDS011;58531;59.050;17.416;2024-02-28T08:54:24;3.33;;;3.00;;
12665;SDS011;58531;59.050;17.416;2024-02-28T08:56:51;3.73;;;2.63;;
12665;SDS011;58531;59.050;17.416;2024-02-28T08:59:19;4.53;;;2.50;;
12665;SDS011;58531;59.050;17.416;2024-02-28T09:01:47;3.93;;;2.60;;
12665;SDS011;58531;59.050;17.416;2024-02-28T09:04:14;2.57;;;2.30;;
12665;SDS011;58531;59.050;17.416;2024-02-28T09:06:41;4.40;;;3.00;;
12665;SDS011;58531;59.050;17.416;2024-02-28T09:09:08;3.00;;;2.70;;
12665;SDS011;58531;59.050;17.416;2024-02-28T09:11:35;3.27;;;2.37;;
12665;SDS011;58531;59.050;17.416;2024-02-28T09:14:02;2.60;;;2.40;;
12665;SDS011;58531;59.050;17.416;2024-02-28T09:16:30;2.97;;;2.37;;
12665;SDS011;58531;59.050;17.416;2024-02-28T09:18:57;2.67;;;2.20;;
12665;SDS011;58531;59.050;17.416;2024-02-28T09:21:24;3.13;;;2.40;;
12665;SDS011;58531;59.050;17.416;2024-02-28T09:23:51;2.20;;;2.00;;
12665;SDS011;58531;59.050;17.416;2024-02-28T09:26:18;2.30;;;2.10;;
12665;SDS011;58531;59.050;17.416;2024-02-28T09:28:45;2.40;;;2.20;;
12665;SDS011;58531;59.050;17.416;2024-02-28T09:31:12;2.40;;;2.20;;
12665;SDS011;58531;59.050;17.416;2024-02-28T09:33:42;2.47;;;2.20;;
12665;SDS011;58531;59.050;17.416;2024-02-28T09:36:11;2.30;;;2.00;;
12665;SDS011;58531;59.050;17.416;2024-02-28T09:38:38;2.83;;;2.30;;
12665;SDS011;58531;59.050;17.416;2024-02-28T09:41:06;2.40;;;2.20;;
12665;SDS011;58531;59.050;17.416;2024-02-28T09:43:40;2.77;;;2.23;;
12665;SDS011;58531;59.050;17.416;2024-02-28T09:46:08;2.57;;;2.03;;
12665;SDS011;58531;59.050;17.416;2024-02-28T09:48:37;2.90;;;2.40;;
12665;SDS011;58531;59.050;17.416;2024-02-28T09:51:07;2.73;;;2.33;;
12665;SDS011;58531;59.050;17.416;2024-02-28T09:53:35;2.57;;;2.37;;
12665;SDS011;58531;59.050;17.416;2024-02-28T09:56:02;2.23;;;1.67;;
12665;SDS011;58531;59.050;17.416;2024-02-28T09:58:29;2.53;;;2.10;;
12665;SDS011;58531;59.050;17.416;2024-02-28T10:01:01;2.57;;;1.90;;
12665;SDS011;58531;59.050;17.416;2024-02-28T10:03:30;2.30;;;2.10;;
12665;SDS011;58531;59.050;17.416;2024-02-28T10:05:58;2.30;;;2.10;;
12665;SDS011;58531;59.050;17.416;2024-02-28T10:08:26;1.80;;;1.70;;
12665;SDS011;58531;59.050;17.416;2024-02-28T10:10:54;3.47;;;2.37;;
12665;SDS011;58531;59.050;17.416;2024-02-28T10:13:22;2.70;;;2.50;;
12665;SDS011;58531;59.050;17.416;2024-02-28T10:15:49;2.30;;;2.10;;
12665;SDS011;58531;59.050;17.416;2024-02-28T10:18:16;2.67;;;2.20;;
12665;SDS011;58531;59.050;17.416;2024-02-28T10:20:43;2.47;;;1.77;;
12665;SDS011;58531;59.050;17.416;2024-02-28T10:23:10;2.30;;;1.97;;
12665;SDS011;58531;59.050;17.416;2024-02-28T10:25:47;2.53;;;2.23;;
12665;SDS011;58531;59.050;17.416;2024-02-28T10:28:14;3.60;;;2.17;;
12665;SDS011;58531;59.050;17.416;2024-02-28T10:30:41;2.90;;;2.27;;
12665;SDS011;58531;59.050;17.416;2024-02-28T10:33:11;2.60;;;2.13;;
12665;SDS011;58531;59.050;17.416;2024-02-28T10:35:39;2.57;;;2.37;;
12665;SDS011;58531;59.050;17.416;2024-02-28T10:38:07;2.60;;;2.40;;
12665;SDS011;58531;59.050;17.416;2024-02-28T10:40:37;2.63;;;2.43;;
12665;SDS011;58531;59.050;17.416;2024-02-28T10:43:05;2.30;;;2.10;;
12665;SDS011;58531;59.050;17.416;2024-02-28T10:45:35;3.53;;;2.20;;
12665;SDS011;58531;59.050;17.416;2024-02-28T10:48:02;2.60;;;2.23;;
12665;SDS011;58531;59.050;17.416;2024-02-28T10:50:30;2.30;;;2.10;;
12665;SDS011;58531;59.050;17.416;2024-02-28T10:53:00;3.30;;;2.00;;
12665;SDS011;58531;59.050;17.416;2024-02-28T10:58:01;2.20;;;2.00;;
12665;SDS011;58531;59.050;17.416;2024-02-28T11:00:30;2.07;;;1.87;;
12665;SDS011;58531;59.050;17.416;2024-02-28T11:02:58;2.43;;;2.10;;
12665;SDS011;58531;59.050;17.416;2024-02-28T11:05:35;3.73;;;2.50;;
12665;SDS011;58531;59.050;17.416;2024-02-28T11:08:03;2.67;;;2.47;;
12665;SDS011;58531;59.050;17.416;2024-02-28T11:10:31;2.77;;;2.40;;
12665;SDS011;58531;59.050;17.416;2024-02-28T11:12:58;2.90;;;2.30;;
12665;SDS011;58531;59.050;17.416;2024-02-28T11:15:25;2.90;;;2.07;;
12665;SDS011;58531;59.050;17.416;2024-02-28T11:17:54;1.80;;;1.63;;
12665;SDS011;58531;59.050;17.416;2024-02-28T11:20:21;2.33;;;1.77;;
12665;SDS011;58531;59.050;17.416;2024-02-28T11:22:48;2.13;;;1.97;;
12665;SDS011;58531;59.050;17.416;2024-02-28T11:25:15;2.43;;;2.07;;
12665;SDS011;58531;59.050;17.416;2024-02-28T11:27:45;1.90;;;1.70;;
12665;SDS011;58531;59.050;17.416;2024-02-28T11:30:13;2.20;;;1.80;;
12665;SDS011;58531;59.050;17.416;2024-02-28T11:32:40;2.20;;;1.80;;
12665;SDS011;58531;59.050;17.416;2024-02-28T11:35:09;1.73;;;1.63;;
12665;SDS011;58531;59.050;17.416;2024-02-28T11:37:37;1.80;;;1.70;;
12665;SDS011;58531;59.050;17.416;2024-02-28T11:40:06;1.70;;;1.60;;
12665;SDS011;58531;59.050;17.416;2024-02-28T11:42:35;2.50;;;1.80;;
12665;SDS011;58531;59.050;17.416;2024-02-28T11:45:02;1.80;;;1.70;;
12665;SDS011;58531;59.050;17.416;2024-02-28T11:47:30;2.00;;;1.80;;
12665;SDS011;58531;59.050;17.416;2024-02-28T11:49:58;1.90;;;1.80;;
12665;SDS011;58531;59.050;17.416;2024-02-28T11:52:28;1.90;;;1.70;;
12665;SDS011;58531;59.050;17.416;2024-02-28T11:54:56;1.97;;;1.83;;
12665;SDS011;58531;59.050;17.416;2024-02-28T11:57:23;1.97;;;1.77;;
12665;SDS011;58531;59.050;17.416;2024-02-28T11:59:50;2.30;;;2.10;;
12665;SDS011;58531;59.050;17.416;2024-02-28T12:02:17;2.53;;;2.33;;
12665;SDS011;58531;59.050;17.416;2024-02-28T12:04:44;2.03;;;1.83;;
12665;SDS011;58531;59.050;17.416;2024-02-28T12:07:15;2.73;;;1.87;;
12665;SDS011;58531;59.050;17.416;2024-02-28T12:09:43;2.30;;;2.10;;
12665;SDS011;58531;59.050;17.416;2024-02-28T12:12:11;2.10;;;1.90;;
12665;SDS011;58531;59.050;17.416;2024-02-28T12:14:38;2.20;;;2.00;;
12665;SDS011;58531;59.050;17.416;2024-02-28T12:17:08;2.10;;;1.90;;
12665;SDS011;58531;59.050;17.416;2024-02-28T12:19:35;2.43;;;2.20;;
12665;SDS011;58531;59.050;17.416;2024-02-28T12:22:02;2.07;;;1.87;;
12665;SDS011;58531;59.050;17.416;2024-02-28T12:24:29;2.20;;;2.00;;
12665;SDS011;58531;59.050;17.416;2024-02-28T12:26:57;2.40;;;1.97;;
12665;SDS011;58531;59.050;17.416;2024-02-28T12:29:24;2.57;;;2.00;;
12665;SDS011;58531;59.050;17.416;2024-02-28T12:31:51;2.20;;;2.00;;
12665;SDS011;58531;59.050;17.416;2024-02-28T12:34:18;2.00;;;1.80;;
12665;SDS011;58531;59.050;17.416;2024-02-28T12:36:46;2.30;;;2.10;;
12665;SDS011;58531;59.050;17.416;2024-02-28T12:39:13;3.53;;;2.83;;
12665;SDS011;58531;59.050;17.416;2024-02-28T12:41:40;3.23;;;2.60;;
12665;SDS011;58531;59.050;17.416;2024-02-28T12:44:08;2.90;;;2.30;;
12665;SDS011;58531;59.050;17.416;2024-02-28T12:46:35;2.80;;;2.23;;
12665;SDS011;58531;59.050;17.416;2024-02-28T12:49:02;2.77;;;2.47;;
12665;SDS011;58531;59.050;17.416;2024-02-28T12:51:37;2.20;;;1.90;;
12665;SDS011;58531;59.050;17.416;2024-02-28T12:54:06;2.20;;;2.00;;
12665;SDS011;58531;59.050;17.416;2024-02-28T12:56:34;2.10;;;1.90;;
12665;SDS011;58531;59.050;17.416;2024-02-28T12:59:00;2.40;;;2.10;;
12665;SDS011;58531;59.050;17.416;2024-02-28T13:01:29;2.27;;;1.90;;
12665;SDS011;58531;59.050;17.416;2024-02-28T13:03:56;2.20;;;2.00;;
12665;SDS011;58531;59.050;17.416;2024-02-28T13:06:22;2.33;;;1.97;;
12665;SDS011;58531;59.050;17.416;2024-02-28T13:08:50;2.00;;;1.80;;
12665;SDS011;58531;59.050;17.416;2024-02-28T13:11:18;1.80;;;1.60;;
12665;SDS011;58531;59.050;17.416;2024-02-28T13:13:46;2.10;;;1.70;;
12665;SDS011;58531;59.050;17.416;2024-02-28T13:16:13;1.90;;;1.80;;
12665;SDS011;58531;59.050;17.416;2024-02-28T13:18:41;1.67;;;1.57;;
12665;SDS011;58531;59.050;17.416;2024-02-28T13:21:08;1.73;;;1.63;;
12665;SDS011;58531;59.050;17.416;2024-02-28T13:23:35;1.93;;;1.73;;
12665;SDS011;58531;59.050;17.416;2024-02-28T13:26:03;1.60;;;1.50;;
12665;SDS011;58531;59.050;17.416;2024-02-28T13:28:30;2.20;;;2.00;;
12665;SDS011;58531;59.050;17.416;2024-02-28T13:30:57;2.20;;;1.70;;
12665;SDS011;58531;59.050;17.416;2024-02-28T13:33:25;2.63;;;1.90;;
12665;SDS011;58531;59.050;17.416;2024-02-28T13:35:53;2.20;;;1.80;;
12665;SDS011;58531;59.050;17.416;2024-02-28T13:38:22;3.23;;;1.60;;
12665;SDS011;58531;59.050;17.416;2024-02-28T13:40:49;1.57;;;1.30;;
12665;SDS011;58531;59.050;17.416;2024-02-28T13:43:16;1.83;;;1.57;;
12665;SDS011;58531;59.050;17.416;2024-02-28T13:45:46;1.80;;;1.60;;
12665;SDS011;58531;59.050;17.416;2024-02-28T13:48:15;1.70;;;1.60;;
12665;SDS011;58531;59.050;17.416;2024-02-28T13:50:43;2.43;;;1.60;;
12665;SDS011;58531;59.050;17.416;2024-02-28T13:53:12;2.10;;;1.90;;
12665;SDS011;58531;59.050;17.416;2024-02-28T13:55:40;1.83;;;1.73;;
12665;SDS011;58531;59.050;17.416;2024-02-28T13:58:07;2.37;;;1.70;;
12665;SDS011;58531;59.050;17.416;2024-02-28T14:00:36;4.00;;;2.07;;
12665;SDS011;58531;59.050;17.416;2024-02-28T14:03:04;2.17;;;1.80;;
12665;SDS011;58531;59.050;17.416;2024-02-28T14:05:32;3.20;;;1.90;;
12665;SDS011;58531;59.050;17.416;2024-02-28T14:07:59;2.13;;;1.50;;
12665;SDS011;58531;59.050;17.416;2024-02-28T14:10:30;2.43;;;1.90;;
12665;SDS011;58531;59.050;17.416;2024-02-28T14:12:57;4.13;;;2.00;;
12665;SDS011;58531;59.050;17.416;2024-02-28T14:15:24;3.43;;;2.03;;
12665;SDS011;58531;59.050;17.416;2024-02-28T14:17:51;2.67;;;2.23;;
12665;SDS011;58531;59.050;17.416;2024-02-28T14:20:18;2.27;;;1.93;;
12665;SDS011;58531;59.050;17.416;2024-02-28T14:22:45;2.40;;;2.20;;
12665;SDS011;58531;59.050;17.416;2024-02-28T14:25:12;2.50;;;2.10;;
12665;SDS011;58531;59.050;17.416;2024-02-28T14:27:43;2.43;;;1.93;;
12665;SDS011;58531;59.050;17.416;2024-02-28T14:30:12;2.73;;;1.93;;
12665;SDS011;58531;59.050;17.416;2024-02-28T14:32:40;2.37;;;2.13;;
12665;SDS011;58531;59.050;17.416;2024-02-28T14:35:09;2.40;;;2.20;;
12665;SDS011;58531;59.050;17.416;2024-02-28T14:37:37;3.97;;;2.43;;